sensor_id;sensor_type;location;lat;lon;timestamp;P1;P2;P0
64229;PMS5003;50547;49.498;0.092;2023-02-01T00:01:31;7;7;
64229;PMS5003;50547;49.498;0.092;2023-02-01T00:04:00;7;7;
64229;PMS5003;50547;49.498;0.092;2023-02-01T00:06:29;7;7;
64229;PMS5003;50547;49.498;0.092;2023-02-01T00:08:58;7;7;
64229;PMS5003;50547;49.498;0.092;2023-02-01T00:11:27;6;6;
64229;PMS5003;50547;49.498;0.092;2023-02-01T00:13:57;6;6;
64229;PMS5003;50547;49.498;0.092;2023-02-01T00:16:27;6;6;
64229;PMS5003;50547;49.498;0.092;2023-02-01T00:18:58;5;5;
64229;PMS5003;50547;49.498;0.092;2023-02-01T00:21:29;7;7;
64229;PMS5003;50547;49.498;0.092;2023-02-01T00:23:58;7;7;
64229;PMS5003;50547;49.498;0.092;2023-02-01T00:26:30;8;8;
64229;PMS5003;50547;49.498;0.092;2023-02-01T00:29:02;7;7;
64229;PMS5003;50547;49.498;0.092;2023-02-01T00:31:33;8;8;
64229;PMS5003;50547;49.498;0.092;2023-02-01T00:34:02;8;8;
64229;PMS5003;50547;49.498;0.092;2023-02-01T00:36:33;6;6;
64229;PMS5003;50547;49.498;0.092;2023-02-01T00:39:02;8;8;
64229;PMS5003;50547;49.498;0.092;2023-02-01T00:41:31;7;7;
64229;PMS5003;50547;49.498;0.092;2023-02-01T00:44:00;7;7;
64229;PMS5003;50547;49.498;0.092;2023-02-01T00:46:30;7;7;
64229;PMS5003;50547;49.498;0.092;2023-02-01T00:48:59;8;8;
64229;PMS5003;50547;49.498;0.092;2023-02-01T00:51:28;7;7;
64229;PMS5003;50547;49.498;0.092;2023-02-01T00:53:58;7;7;
64229;PMS5003;50547;49.498;0.092;2023-02-01T00:56:27;7;7;
64229;PMS5003;50547;49.498;0.092;2023-02-01T00:58:56;8;8;
64229;PMS5003;50547;49.498;0.092;2023-02-01T01:01:26;10;10;
64229;PMS5003;50547;49.498;0.092;2023-02-01T01:03:56;8;8;
64229;PMS5003;50547;49.498;0.092;2023-02-01T01:06:27;7;7;
64229;PMS5003;50547;49.498;0.092;2023-02-01T01:08:59;7;7;
64229;PMS5003;50547;49.498;0.092;2023-02-01T01:11:30;7;7;
64229;PMS5003;50547;49.498;0.092;2023-02-01T01:14:00;8;8;
64229;PMS5003;50547;49.498;0.092;2023-02-01T01:16:30;8;8;
64229;PMS5003;50547;49.498;0.092;2023-02-01T01:19:00;7;7;
64229;PMS5003;50547;49.498;0.092;2023-02-01T01:21:29;8;8;
64229;PMS5003;50547;49.498;0.092;2023-02-01T01:23:59;8;8;
64229;PMS5003;50547;49.498;0.092;2023-02-01T01:26:28;7;7;
64229;PMS5003;50547;49.498;0.092;2023-02-01T01:28:59;7;7;
64229;PMS5003;50547;49.498;0.092;2023-02-01T01:31:28;8;8;
64229;PMS5003;50547;49.498;0.092;2023-02-01T01:33:58;10;10;
64229;PMS5003;50547;49.498;0.092;2023-02-01T01:36:28;8;8;
64229;PMS5003;50547;49.498;0.092;2023-02-01T01:38:58;8;8;
64229;PMS5003;50547;49.498;0.092;2023-02-01T01:41:28;8;8;
64229;PMS5003;50547;49.498;0.092;2023-02-01T01:44:00;10;10;
64229;PMS5003;50547;49.498;0.092;2023-02-01T01:46:31;9;9;
64229;PMS5003;50547;49.498;0.092;2023-02-01T01:49:04;8;8;
64229;PMS5003;50547;49.498;0.092;2023-02-01T01:51:37;7;7;
64229;PMS5003;50547;49.498;0.092;2023-02-01T01:54:10;7;7;
64229;PMS5003;50547;49.498;0.092;2023-02-01T01:56:42;8;8;
64229;PMS5003;50547;49.498;0.092;2023-02-01T01:59:13;7;7;
64229;PMS5003;50547;49.498;0.092;2023-02-01T02:01:42;9;9;
64229;PMS5003;50547;49.498;0.092;2023-02-01T02:04:12;8;8;
64229;PMS5003;50547;49.498;0.092;2023-02-01T02:06:42;8;8;
64229;PMS5003;50547;49.498;0.092;2023-02-01T02:09:16;7;7;
64229;PMS5003;50547;49.498;0.092;2023-02-01T02:11:45;8;8;
64229;PMS5003;50547;49.498;0.092;2023-02-01T02:14:14;8;8;
64229;PMS5003;50547;49.498;0.092;2023-02-01T02:16:52;8;8;
64229;PMS5003;50547;49.498;0.092;2023-02-01T02:19:41;8;8;
64229;PMS5003;50547;49.498;0.092;2023-02-01T02:24:48;8;8;
64229;PMS5003;50547;49.498;0.092;2023-02-01T02:27:36;6;6;
64229;PMS5003;50547;49.498;0.092;2023-02-01T02:30:55;6;6;
64229;PMS5003;50547;49.498;0.092;2023-02-01T02:33:47;8;8;
64229;PMS5003;50547;49.498;0.092;2023-02-01T02:36:30;7;7;
64229;PMS5003;50547;49.498;0.092;2023-02-01T02:39:07;6;6;
64229;PMS5003;50547;49.498;0.092;2023-02-01T02:41:48;7;7;
64229;PMS5003;50547;49.498;0.092;2023-02-01T02:44:24;6;6;
64229;PMS5003;50547;49.498;0.092;2023-02-01T02:47:03;7;7;
64229;PMS5003;50547;49.498;0.092;2023-02-01T02:49:40;8;8;
64229;PMS5003;50547;49.498;0.092;2023-02-01T02:52:18;8;8;
64229;PMS5003;50547;49.498;0.092;2023-02-01T02:54:49;7;7;
64229;PMS5003;50547;49.498;0.092;2023-02-01T02:57:21;5;5;
64229;PMS5003;50547;49.498;0.092;2023-02-01T02:59:54;7;7;
64229;PMS5003;50547;49.498;0.092;2023-02-01T03:02:25;6;6;
64229;PMS5003;50547;49.498;0.092;2023-02-01T03:04:56;7;7;
64229;PMS5003;50547;49.498;0.092;2023-02-01T03:07:59;8;8;
64229;PMS5003;50547;49.498;0.092;2023-02-01T03:11:04;10;10;
64229;PMS5003;50547;49.498;0.092;2023-02-01T03:13:36;8;8;
64229;PMS5003;50547;49.498;0.092;2023-02-01T03:16:10;8;8;
64229;PMS5003;50547;49.498;0.092;2023-02-01T03:18:47;9;9;
64229;PMS5003;50547;49.498;0.092;2023-02-01T03:21:21;9;9;
64229;PMS5003;50547;49.498;0.092;2023-02-01T03:23:54;7;7;
64229;PMS5003;50547;49.498;0.092;2023-02-01T03:26:27;7;7;
64229;PMS5003;50547;49.498;0.092;2023-02-01T03:29:00;10;10;
64229;PMS5003;50547;49.498;0.092;2023-02-01T03:31:34;8;8;
64229;PMS5003;50547;49.498;0.092;2023-02-01T03:34:03;9;9;
64229;PMS5003;50547;49.498;0.092;2023-02-01T03:36:35;9;9;
64229;PMS5003;50547;49.498;0.092;2023-02-01T03:39:09;8;8;
64229;PMS5003;50547;49.498;0.092;2023-02-01T03:41:44;8;8;
64229;PMS5003;50547;49.498;0.092;2023-02-01T03:44:19;7;7;
64229;PMS5003;50547;49.498;0.092;2023-02-01T03:46:52;8;8;
64229;PMS5003;50547;49.498;0.092;2023-02-01T03:49:25;9;9;
64229;PMS5003;50547;49.498;0.092;2023-02-01T03:51:58;8;8;
64229;PMS5003;50547;49.498;0.092;2023-02-01T03:54:27;9;9;
64229;PMS5003;50547;49.498;0.092;2023-02-01T03:56:59;10;10;
64229;PMS5003;50547;49.498;0.092;2023-02-01T03:59:33;8;8;
64229;PMS5003;50547;49.498;0.092;2023-02-01T04:02:02;9;9;
64229;PMS5003;50547;49.498;0.092;2023-02-01T04:04:31;9;9;
64229;PMS5003;50547;49.498;0.092;2023-02-01T04:07:02;8;8;
64229;PMS5003;50547;49.498;0.092;2023-02-01T04:09:31;8;8;
64229;PMS5003;50547;49.498;0.092;2023-02-01T04:12:00;10;10;
64229;PMS5003;50547;49.498;0.092;2023-02-01T04:14:29;10;10;
64229;PMS5003;50547;49.498;0.092;2023-02-01T04:16:58;10;10;
64229;PMS5003;50547;49.498;0.092;2023-02-01T04:19:27;10;10;
64229;PMS5003;50547;49.498;0.092;2023-02-01T04:21:56;9;9;
64229;PMS5003;50547;49.498;0.092;2023-02-01T04:24:25;8;8;
64229;PMS5003;50547;49.498;0.092;2023-02-01T04:26:54;10;10;
64229;PMS5003;50547;49.498;0.092;2023-02-01T04:29:23;7;7;
64229;PMS5003;50547;49.498;0.092;2023-02-01T04:31:52;9;9;
64229;PMS5003;50547;49.498;0.092;2023-02-01T04:34:21;9;9;
64229;PMS5003;50547;49.498;0.092;2023-02-01T04:36:50;9;9;
64229;PMS5003;50547;49.498;0.092;2023-02-01T04:39:19;8;8;
64229;PMS5003;50547;49.498;0.092;2023-02-01T04:41:48;10;10;
64229;PMS5003;50547;49.498;0.092;2023-02-01T04:44:18;8;8;
64229;PMS5003;50547;49.498;0.092;2023-02-01T04:46:48;10;10;
64229;PMS5003;50547;49.498;0.092;2023-02-01T04:49:17;8;8;
64229;PMS5003;50547;49.498;0.092;2023-02-01T04:51:46;8;8;
64229;PMS5003;50547;49.498;0.092;2023-02-01T04:54:15;8;8;
64229;PMS5003;50547;49.498;0.092;2023-02-01T04:56:45;10;10;
64229;PMS5003;50547;49.498;0.092;2023-02-01T04:59:14;7;7;
64229;PMS5003;50547;49.498;0.092;2023-02-01T05:01:42;8;8;
64229;PMS5003;50547;49.498;0.092;2023-02-01T05:04:11;10;10;
64229;PMS5003;50547;49.498;0.092;2023-02-01T05:06:41;10;10;
64229;PMS5003;50547;49.498;0.092;2023-02-01T05:09:10;8;8;
64229;PMS5003;50547;49.498;0.092;2023-02-01T05:11:39;10;10;
64229;PMS5003;50547;49.498;0.092;2023-02-01T05:14:08;10;10;
64229;PMS5003;50547;49.498;0.092;2023-02-01T05:16:37;10;10;
64229;PMS5003;50547;49.498;0.092;2023-02-01T05:19:06;8;8;
64229;PMS5003;50547;49.498;0.092;2023-02-01T05:21:35;10;10;
64229;PMS5003;50547;49.498;0.092;2023-02-01T05:24:05;8;8;
64229;PMS5003;50547;49.498;0.092;2023-02-01T05:26:35;8;8;
64229;PMS5003;50547;49.498;0.092;2023-02-01T05:29:06;9;9;
64229;PMS5003;50547;49.498;0.092;2023-02-01T05:31:36;9;9;
64229;PMS5003;50547;49.498;0.092;2023-02-01T05:34:06;10;10;
64229;PMS5003;50547;49.498;0.092;2023-02-01T05:36:35;10;10;
64229;PMS5003;50547;49.498;0.092;2023-02-01T05:39:04;10;10;
64229;PMS5003;50547;49.498;0.092;2023-02-01T05:41:34;8;8;
64229;PMS5003;50547;49.498;0.092;2023-02-01T05:44:03;10;10;
64229;PMS5003;50547;49.498;0.092;2023-02-01T05:46:33;8;8;
64229;PMS5003;50547;49.498;0.092;2023-02-01T05:49:02;8;8;
64229;PMS5003;50547;49.498;0.092;2023-02-01T05:51:31;8;8;
64229;PMS5003;50547;49.498;0.092;2023-02-01T05:54:00;10;10;
64229;PMS5003;50547;49.498;0.092;2023-02-01T05:56:29;10;10;
64229;PMS5003;50547;49.498;0.092;2023-02-01T05:58:58;10;10;
64229;PMS5003;50547;49.498;0.092;2023-02-01T06:01:27;10;10;
64229;PMS5003;50547;49.498;0.092;2023-02-01T06:03:57;8;8;
64229;PMS5003;50547;49.498;0.092;2023-02-01T06:06:23;10;10;
64229;PMS5003;50547;49.498;0.092;2023-02-01T06:08:52;10;10;
64229;PMS5003;50547;49.498;0.092;2023-02-01T06:11:21;9;9;
64229;PMS5003;50547;49.498;0.092;2023-02-01T06:13:50;10;10;
64229;PMS5003;50547;49.498;0.092;2023-02-01T06:16:17;8;8;
64229;PMS5003;50547;49.498;0.092;2023-02-01T06:18:52;8;8;
64229;PMS5003;50547;49.498;0.092;2023-02-01T06:21:19;8;8;
64229;PMS5003;50547;49.498;0.092;2023-02-01T06:23:47;10;10;
64229;PMS5003;50547;49.498;0.092;2023-02-01T06:26:14;10;10;
64229;PMS5003;50547;49.498;0.092;2023-02-01T06:28:43;9;9;
64229;PMS5003;50547;49.498;0.092;2023-02-01T06:31:09;8;8;
64229;PMS5003;50547;49.498;0.092;2023-02-01T06:33:39;9;9;
64229;PMS5003;50547;49.498;0.092;2023-02-01T06:36:09;10;10;
64229;PMS5003;50547;49.498;0.092;2023-02-01T06:38:39;10;10;
64229;PMS5003;50547;49.498;0.092;2023-02-01T06:41:09;9;9;
64229;PMS5003;50547;49.498;0.092;2023-02-01T06:43:38;8;8;
64229;PMS5003;50547;49.498;0.092;2023-02-01T06:46:09;8;8;
64229;PMS5003;50547;49.498;0.092;2023-02-01T06:48:40;10;10;
64229;PMS5003;50547;49.498;0.092;2023-02-01T06:53:48;9;9;
64229;PMS5003;50547;49.498;0.092;2023-02-01T06:56:18;8;8;
64229;PMS5003;50547;49.498;0.092;2023-02-01T06:58:48;8;8;
64229;PMS5003;50547;49.498;0.092;2023-02-01T07:01:17;10;10;
64229;PMS5003;50547;49.498;0.092;2023-02-01T07:03:47;8;8;
64229;PMS5003;50547;49.498;0.092;2023-02-01T07:06:17;9;9;
64229;PMS5003;50547;49.498;0.092;2023-02-01T07:08:47;10;10;
64229;PMS5003;50547;49.498;0.092;2023-02-01T07:11:19;10;10;
64229;PMS5003;50547;49.498;0.092;2023-02-01T07:13:48;8;8;
64229;PMS5003;50547;49.498;0.092;2023-02-01T07:16:17;10;10;
64229;PMS5003;50547;49.498;0.092;2023-02-01T07:18:48;10;10;
64229;PMS5003;50547;49.498;0.092;2023-02-01T07:21:18;10;10;
64229;PMS5003;50547;49.498;0.092;2023-02-01T07:23:48;10;10;
64229;PMS5003;50547;49.498;0.092;2023-02-01T07:26:17;10;10;
64229;PMS5003;50547;49.498;0.092;2023-02-01T07:28:46;9;9;
64229;PMS5003;50547;49.498;0.092;2023-02-01T07:31:16;10;10;
64229;PMS5003;50547;49.498;0.092;2023-02-01T07:33:47;10;10;
64229;PMS5003;50547;49.498;0.092;2023-02-01T07:36:17;9;9;
64229;PMS5003;50547;49.498;0.092;2023-02-01T07:38:47;10;10;
64229;PMS5003;50547;49.498;0.092;2023-02-01T07:41:16;10;10;
64229;PMS5003;50547;49.498;0.092;2023-02-01T07:43:45;10;10;
64229;PMS5003;50547;49.498;0.092;2023-02-01T07:46:14;8;8;
64229;PMS5003;50547;49.498;0.092;2023-02-01T07:48:43;10;10;
64229;PMS5003;50547;49.498;0.092;2023-02-01T07:51:13;10;10;
64229;PMS5003;50547;49.498;0.092;2023-02-01T07:53:44;10;10;
64229;PMS5003;50547;49.498;0.092;2023-02-01T07:56:14;10;10;
64229;PMS5003;50547;49.498;0.092;2023-02-01T07:58:47;8;8;
64229;PMS5003;50547;49.498;0.092;2023-02-01T08:01:16;9;9;
64229;PMS5003;50547;49.498;0.092;2023-02-01T08:03:47;9;9;
64229;PMS5003;50547;49.498;0.092;2023-02-01T08:06:17;10;10;
64229;PMS5003;50547;49.498;0.092;2023-02-01T08:08:48;10;10;
64229;PMS5003;50547;49.498;0.092;2023-02-01T08:11:19;9;9;
64229;PMS5003;50547;49.498;0.092;2023-02-01T08:13:50;8;8;
64229;PMS5003;50547;49.498;0.092;2023-02-01T08:16:19;9;9;
64229;PMS5003;50547;49.498;0.092;2023-02-01T08:18:50;10;10;
64229;PMS5003;50547;49.498;0.092;2023-02-01T08:21:21;10;10;
64229;PMS5003;50547;49.498;0.092;2023-02-01T08:23:51;8;8;
64229;PMS5003;50547;49.498;0.092;2023-02-01T08:26:21;8;8;
64229;PMS5003;50547;49.498;0.092;2023-02-01T08:28:53;8;8;
64229;PMS5003;50547;49.498;0.092;2023-02-01T08:31:27;8;8;
64229;PMS5003;50547;49.498;0.092;2023-02-01T08:33:58;8;8;
64229;PMS5003;50547;49.498;0.092;2023-02-01T08:36:29;10;10;
64229;PMS5003;50547;49.498;0.092;2023-02-01T08:38:59;11;11;
64229;PMS5003;50547;49.498;0.092;2023-02-01T08:41:29;11;11;
64229;PMS5003;50547;49.498;0.092;2023-02-01T08:43:58;11;11;
64229;PMS5003;50547;49.498;0.092;2023-02-01T08:46:27;10;10;
64229;PMS5003;50547;49.498;0.092;2023-02-01T08:48:57;10;10;
64229;PMS5003;50547;49.498;0.092;2023-02-01T08:51:26;10;10;
64229;PMS5003;50547;49.498;0.092;2023-02-01T08:53:55;10;10;
64229;PMS5003;50547;49.498;0.092;2023-02-01T08:56:24;10;10;
64229;PMS5003;50547;49.498;0.092;2023-02-01T08:58:53;10;10;
64229;PMS5003;50547;49.498;0.092;2023-02-01T09:01:22;10;10;
64229;PMS5003;50547;49.498;0.092;2023-02-01T09:03:51;10;10;
64229;PMS5003;50547;49.498;0.092;2023-02-01T09:06:20;8;8;
64229;PMS5003;50547;49.498;0.092;2023-02-01T09:08:49;10;10;
64229;PMS5003;50547;49.498;0.092;2023-02-01T09:11:18;10;10;
64229;PMS5003;50547;49.498;0.092;2023-02-01T09:13:48;10;10;
64229;PMS5003;50547;49.498;0.092;2023-02-01T09:16:17;10;10;
64229;PMS5003;50547;49.498;0.092;2023-02-01T09:18:46;10;10;
64229;PMS5003;50547;49.498;0.092;2023-02-01T09:21:15;11;11;
64229;PMS5003;50547;49.498;0.092;2023-02-01T09:23:44;10;10;
64229;PMS5003;50547;49.498;0.092;2023-02-01T09:26:13;11;11;
64229;PMS5003;50547;49.498;0.092;2023-02-01T09:28:42;10;10;
64229;PMS5003;50547;49.498;0.092;2023-02-01T09:31:11;11;11;
64229;PMS5003;50547;49.498;0.092;2023-02-01T09:33:40;10;10;
64229;PMS5003;50547;49.498;0.092;2023-02-01T09:36:10;10;10;
64229;PMS5003;50547;49.498;0.092;2023-02-01T09:38:39;10;10;
64229;PMS5003;50547;49.498;0.092;2023-02-01T09:41:10;10;10;
64229;PMS5003;50547;49.498;0.092;2023-02-01T09:43:56;10;10;
64229;PMS5003;50547;49.498;0.092;2023-02-01T09:46:35;8;8;
64229;PMS5003;50547;49.498;0.092;2023-02-01T09:49:08;9;9;
64229;PMS5003;50547;49.498;0.092;2023-02-01T09:51:41;9;9;
64229;PMS5003;50547;49.498;0.092;2023-02-01T09:54:14;8;8;
64229;PMS5003;50547;49.498;0.092;2023-02-01T09:56:46;10;10;
64229;PMS5003;50547;49.498;0.092;2023-02-01T09:59:21;9;9;
64229;PMS5003;50547;49.498;0.092;2023-02-01T10:01:58;10;10;
64229;PMS5003;50547;49.498;0.092;2023-02-01T10:04:29;10;10;
64229;PMS5003;50547;49.498;0.092;2023-02-01T10:07:02;9;9;
64229;PMS5003;50547;49.498;0.092;2023-02-01T10:09:50;10;10;
64229;PMS5003;50547;49.498;0.092;2023-02-01T10:12:31;10;10;
64229;PMS5003;50547;49.498;0.092;2023-02-01T10:15:17;10;10;
64229;PMS5003;50547;49.498;0.092;2023-02-01T10:17:56;10;10;
64229;PMS5003;50547;49.498;0.092;2023-02-01T10:20:43;10;10;
64229;PMS5003;50547;49.498;0.092;2023-02-01T10:23:30;10;10;
64229;PMS5003;50547;49.498;0.092;2023-02-01T10:26:19;10;10;
64229;PMS5003;50547;49.498;0.092;2023-02-01T10:28:53;10;10;
64229;PMS5003;50547;49.498;0.092;2023-02-01T10:31:25;9;9;
64229;PMS5003;50547;49.498;0.092;2023-02-01T10:33:58;10;10;
64229;PMS5003;50547;49.498;0.092;2023-02-01T10:36:28;10;10;
64229;PMS5003;50547;49.498;0.092;2023-02-01T10:39:00;10;10;
64229;PMS5003;50547;49.498;0.092;2023-02-01T10:41:32;10;10;
64229;PMS5003;50547;49.498;0.092;2023-02-01T10:44:04;10;10;
64229;PMS5003;50547;49.498;0.092;2023-02-01T10:46:38;10;10;
64229;PMS5003;50547;49.498;0.092;2023-02-01T10:49:10;10;10;
64229;PMS5003;50547;49.498;0.092;2023-02-01T10:51:46;11;11;
64229;PMS5003;50547;49.498;0.092;2023-02-01T10:54:19;11;11;
64229;PMS5003;50547;49.498;0.092;2023-02-01T10:56:50;10;10;
64229;PMS5003;50547;49.498;0.092;2023-02-01T10:59:20;11;11;
64229;PMS5003;50547;49.498;0.092;2023-02-01T11:01:57;10;10;
64229;PMS5003;50547;49.498;0.092;2023-02-01T11:04:28;10;10;
64229;PMS5003;50547;49.498;0.092;2023-02-01T11:07:05;10;10;
64229;PMS5003;50547;49.498;0.092;2023-02-01T11:09:41;10;10;
64229;PMS5003;50547;49.498;0.092;2023-02-01T11:12:28;10;10;
64229;PMS5003;50547;49.498;0.092;2023-02-01T11:15:00;9;9;
64229;PMS5003;50547;49.498;0.092;2023-02-01T11:17:33;8;8;
64229;PMS5003;50547;49.498;0.092;2023-02-01T11:20:13;7;7;
64229;PMS5003;50547;49.498;0.092;2023-02-01T11:22:46;8;8;
64229;PMS5003;50547;49.498;0.092;2023-02-01T11:25:17;8;8;
64229;PMS5003;50547;49.498;0.092;2023-02-01T11:27:47;7;7;
64229;PMS5003;50547;49.498;0.092;2023-02-01T11:30:19;8;8;
64229;PMS5003;50547;49.498;0.092;2023-02-01T11:32:54;8;8;
64229;PMS5003;50547;49.498;0.092;2023-02-01T11:35:23;8;8;
64229;PMS5003;50547;49.498;0.092;2023-02-01T11:37:54;8;8;
64229;PMS5003;50547;49.498;0.092;2023-02-01T11:40:27;9;9;
64229;PMS5003;50547;49.498;0.092;2023-02-01T11:43:08;8;8;
64229;PMS5003;50547;49.498;0.092;2023-02-01T11:45:53;8;8;
64229;PMS5003;50547;49.498;0.092;2023-02-01T11:48:24;10;10;
64229;PMS5003;50547;49.498;0.092;2023-02-01T11:50:59;8;8;
64229;PMS5003;50547;49.498;0.092;2023-02-01T11:53:52;10;10;
64229;PMS5003;50547;49.498;0.092;2023-02-01T11:56:33;10;10;
64229;PMS5003;50547;49.498;0.092;2023-02-01T11:59:10;11;11;
64229;PMS5003;50547;49.498;0.092;2023-02-01T12:01:55;10;10;
64229;PMS5003;50547;49.498;0.092;2023-02-01T12:04:49;7;7;
64229;PMS5003;50547;49.498;0.092;2023-02-01T12:07:31;8;8;
64229;PMS5003;50547;49.498;0.092;2023-02-01T12:10:18;8;8;
64229;PMS5003;50547;49.498;0.092;2023-02-01T12:12:57;8;8;
64229;PMS5003;50547;49.498;0.092;2023-02-01T12:15:41;10;10;
64229;PMS5003;50547;49.498;0.092;2023-02-01T12:19:01;7;7;
64229;PMS5003;50547;49.498;0.092;2023-02-01T12:21:47;8;8;
64229;PMS5003;50547;49.498;0.092;2023-02-01T12:24:36;8;8;
64229;PMS5003;50547;49.498;0.092;2023-02-01T12:28:06;8;8;
64229;PMS5003;50547;49.498;0.092;2023-02-01T12:31:23;9;9;
64229;PMS5003;50547;49.498;0.092;2023-02-01T12:34:10;8;8;
64229;PMS5003;50547;49.498;0.092;2023-02-01T12:36:54;10;10;
64229;PMS5003;50547;49.498;0.092;2023-02-01T12:39:36;9;9;
64229;PMS5003;50547;49.498;0.092;2023-02-01T12:42:13;8;8;
64229;PMS5003;50547;49.498;0.092;2023-02-01T12:44:50;8;8;
64229;PMS5003;50547;49.498;0.092;2023-02-01T12:47:24;8;8;
64229;PMS5003;50547;49.498;0.092;2023-02-01T12:49:59;8;8;
64229;PMS5003;50547;49.498;0.092;2023-02-01T12:52:34;8;8;
64229;PMS5003;50547;49.498;0.092;2023-02-01T12:55:10;7;7;
64229;PMS5003;50547;49.498;0.092;2023-02-01T12:57:48;7;7;
64229;PMS5003;50547;49.498;0.092;2023-02-01T13:00:23;8;8;
64229;PMS5003;50547;49.498;0.092;2023-02-01T13:03:00;8;8;
64229;PMS5003;50547;49.498;0.092;2023-02-01T13:05:45;8;8;
64229;PMS5003;50547;49.498;0.092;2023-02-01T13:08:21;8;8;
64229;PMS5003;50547;49.498;0.092;2023-02-01T13:10:56;8;8;
64229;PMS5003;50547;49.498;0.092;2023-02-01T13:13:31;8;8;
64229;PMS5003;50547;49.498;0.092;2023-02-01T13:16:15;8;8;
64229;PMS5003;50547;49.498;0.092;2023-02-01T13:18:48;7;7;
64229;PMS5003;50547;49.498;0.092;2023-02-01T13:21:21;8;8;
64229;PMS5003;50547;49.498;0.092;2023-02-01T13:23:55;8;8;
64229;PMS5003;50547;49.498;0.092;2023-02-01T13:26:26;8;8;
64229;PMS5003;50547;49.498;0.092;2023-02-01T13:28:56;9;9;
64229;PMS5003;50547;49.498;0.092;2023-02-01T13:31:34;8;8;
64229;PMS5003;50547;49.498;0.092;2023-02-01T13:34:56;7;7;
64229;PMS5003;50547;49.498;0.092;2023-02-01T13:37:47;7;7;
64229;PMS5003;50547;49.498;0.092;2023-02-01T13:40:33;8;8;
64229;PMS5003;50547;49.498;0.092;2023-02-01T13:43:10;8;8;
64229;PMS5003;50547;49.498;0.092;2023-02-01T13:45:43;8;8;
64229;PMS5003;50547;49.498;0.092;2023-02-01T13:48:20;10;10;
64229;PMS5003;50547;49.498;0.092;2023-02-01T13:50:54;7;7;
64229;PMS5003;50547;49.498;0.092;2023-02-01T13:53:28;8;8;
64229;PMS5003;50547;49.498;0.092;2023-02-01T13:55:59;8;8;
64229;PMS5003;50547;49.498;0.092;2023-02-01T13:58:31;8;8;
64229;PMS5003;50547;49.498;0.092;2023-02-01T14:01:34;7;7;
64229;PMS5003;50547;49.498;0.092;2023-02-01T14:04:44;10;10;
64229;PMS5003;50547;49.498;0.092;2023-02-01T14:07:25;7;7;
64229;PMS5003;50547;49.498;0.092;2023-02-01T14:10:06;8;8;
64229;PMS5003;50547;49.498;0.092;2023-02-01T14:13:23;7;7;
64229;PMS5003;50547;49.498;0.092;2023-02-01T14:16:15;9;9;
64229;PMS5003;50547;49.498;0.092;2023-02-01T14:18:59;8;8;
64229;PMS5003;50547;49.498;0.092;2023-02-01T14:21:28;9;9;
64229;PMS5003;50547;49.498;0.092;2023-02-01T14:24:00;8;8;
64229;PMS5003;50547;49.498;0.092;2023-02-01T14:26:42;8;8;
64229;PMS5003;50547;49.498;0.092;2023-02-01T14:29:20;8;8;
64229;PMS5003;50547;49.498;0.092;2023-02-01T14:31:59;11;11;
64229;PMS5003;50547;49.498;0.092;2023-02-01T14:34:34;10;10;
64229;PMS5003;50547;49.498;0.092;2023-02-01T14:37:02;10;10;
64229;PMS5003;50547;49.498;0.092;2023-02-01T14:39:35;10;10;
64229;PMS5003;50547;49.498;0.092;2023-02-01T14:42:19;10;10;
64229;PMS5003;50547;49.498;0.092;2023-02-01T14:44:51;8;8;
64229;PMS5003;50547;49.498;0.092;2023-02-01T14:50:38;8;8;
64229;PMS5003;50547;49.498;0.092;2023-02-01T14:53:14;8;8;
64229;PMS5003;50547;49.498;0.092;2023-02-01T14:55:47;7;7;
64229;PMS5003;50547;49.498;0.092;2023-02-01T14:58:29;7;7;
64229;PMS5003;50547;49.498;0.092;2023-02-01T15:01:04;7;7;
64229;PMS5003;50547;49.498;0.092;2023-02-01T15:03:45;7;7;
64229;PMS5003;50547;49.498;0.092;2023-02-01T15:06:22;8;8;
64229;PMS5003;50547;49.498;0.092;2023-02-01T15:08:55;7;7;
64229;PMS5003;50547;49.498;0.092;2023-02-01T15:11:27;8;8;
64229;PMS5003;50547;49.498;0.092;2023-02-01T15:13:56;8;8;
64229;PMS5003;50547;49.498;0.092;2023-02-01T15:16:25;8;8;
64229;PMS5003;50547;49.498;0.092;2023-02-01T15:19:28;8;8;
64229;PMS5003;50547;49.498;0.092;2023-02-01T15:21:58;7;7;
64229;PMS5003;50547;49.498;0.092;2023-02-01T15:24:28;8;8;
64229;PMS5003;50547;49.498;0.092;2023-02-01T15:27:02;18;16;
64229;PMS5003;50547;49.498;0.092;2023-02-01T15:29:33;23;20;
64229;PMS5003;50547;49.498;0.092;2023-02-01T15:32:02;13;13;
64229;PMS5003;50547;49.498;0.092;2023-02-01T15:34:48;8;8;
64229;PMS5003;50547;49.498;0.092;2023-02-01T15:37:20;8;8;
64229;PMS5003;50547;49.498;0.092;2023-02-01T15:40:17;8;8;
64229;PMS5003;50547;49.498;0.092;2023-02-01T15:42:51;8;8;
64229;PMS5003;50547;49.498;0.092;2023-02-01T15:45:23;7;7;
64229;PMS5003;50547;49.498;0.092;2023-02-01T15:47:55;8;8;
64229;PMS5003;50547;49.498;0.092;2023-02-01T15:50:26;7;7;
64229;PMS5003;50547;49.498;0.092;2023-02-01T15:52:58;8;8;
64229;PMS5003;50547;49.498;0.092;2023-02-01T15:55:31;8;8;
64229;PMS5003;50547;49.498;0.092;2023-02-01T15:58:04;8;8;
64229;PMS5003;50547;49.498;0.092;2023-02-01T16:00:39;8;8;
64229;PMS5003;50547;49.498;0.092;2023-02-01T16:03:33;7;7;
64229;PMS5003;50547;49.498;0.092;2023-02-01T16:06:05;7;7;
64229;PMS5003;50547;49.498;0.092;2023-02-01T16:08:34;8;8;
64229;PMS5003;50547;49.498;0.092;2023-02-01T16:11:22;8;8;
64229;PMS5003;50547;49.498;0.092;2023-02-01T16:13:54;7;7;
64229;PMS5003;50547;49.498;0.092;2023-02-01T16:16:23;7;7;
64229;PMS5003;50547;49.498;0.092;2023-02-01T16:18:53;7;7;
64229;PMS5003;50547;49.498;0.092;2023-02-01T16:21:22;7;7;
64229;PMS5003;50547;49.498;0.092;2023-02-01T16:23:51;7;7;
64229;PMS5003;50547;49.498;0.092;2023-02-01T16:26:20;7;7;
64229;PMS5003;50547;49.498;0.092;2023-02-01T16:28:50;8;8;
64229;PMS5003;50547;49.498;0.092;2023-02-01T16:31:20;7;7;
64229;PMS5003;50547;49.498;0.092;2023-02-01T16:33:53;7;7;
64229;PMS5003;50547;49.498;0.092;2023-02-01T16:36:22;8;8;
64229;PMS5003;50547;49.498;0.092;2023-02-01T16:38:53;7;7;
64229;PMS5003;50547;49.498;0.092;2023-02-01T16:41:23;6;6;
64229;PMS5003;50547;49.498;0.092;2023-02-01T16:43:53;7;7;
64229;PMS5003;50547;49.498;0.092;2023-02-01T16:46:20;7;7;
64229;PMS5003;50547;49.498;0.092;2023-02-01T16:48:53;8;8;
64229;PMS5003;50547;49.498;0.092;2023-02-01T16:51:24;7;7;
64229;PMS5003;50547;49.498;0.092;2023-02-01T16:53:56;7;7;
64229;PMS5003;50547;49.498;0.092;2023-02-01T16:56:28;7;7;
64229;PMS5003;50547;49.498;0.092;2023-02-01T16:58:58;8;8;
64229;PMS5003;50547;49.498;0.092;2023-02-01T17:01:28;7;7;
64229;PMS5003;50547;49.498;0.092;2023-02-01T17:03:57;7;7;
64229;PMS5003;50547;49.498;0.092;2023-02-01T17:06:26;7;7;
64229;PMS5003;50547;49.498;0.092;2023-02-01T17:08:56;8;8;
64229;PMS5003;50547;49.498;0.092;2023-02-01T17:11:26;8;8;
64229;PMS5003;50547;49.498;0.092;2023-02-01T17:13:56;10;10;
64229;PMS5003;50547;49.498;0.092;2023-02-01T17:16:30;7;7;
64229;PMS5003;50547;49.498;0.092;2023-02-01T17:19:02;7;7;
64229;PMS5003;50547;49.498;0.092;2023-02-01T17:21:36;7;7;
64229;PMS5003;50547;49.498;0.092;2023-02-01T17:24:11;7;7;
64229;PMS5003;50547;49.498;0.092;2023-02-01T17:26:42;9;9;
64229;PMS5003;50547;49.498;0.092;2023-02-01T17:29:12;9;9;
64229;PMS5003;50547;49.498;0.092;2023-02-01T17:31:39;8;8;
64229;PMS5003;50547;49.498;0.092;2023-02-01T17:34:11;8;8;